Inger, Minnesota
Current Conditions -  °F | °C
As of 12:13 PM on Thursday 29 Jan 2015 (Local Time) from KFOZ Reporting Station
Light Snow Light Snow  
Wind Chill:   Ceiling: 1800
Heat Index: 10°   Visibility: 5mi
Dew Point:   Wind: 7mph
Humidity: 73%   Direction: 280°W
Pressure: 30.3"   Gusts: NA
Location:  47.4603°N, 94.029°W
Report Text: KFOZ 291813Z AUTO 28006KT 5SM -SN OVC018 M12/M16 A3030 RMK AO2
Loading
Personal Weather Stations






























Interactive Weather Map New forecast layout! Learn more

10-Day Weather Forecast

Advertisements
Track Severe Weather on mobile